sensor_id;sensor_type;location;lat;lon;timestamp;pressure;altitude;pressure_sealevel;temperature;humidity
72975;BME280;74127;54.228;37.632;2023-11-21T00:00:46;985.8663;;;-9.43;79.80664
72975;BME280;74127;54.228;37.632;2023-11-21T00:04:47;985.9005;;;-9.39;79.63184
72975;BME280;74127;54.228;37.632;2023-11-21T00:08:46;985.9005;;;-9.39;79.63184
72975;BME280;74127;54.228;37.632;2023-11-21T00:12:46;985.8753;;;-9.33;79.52051
72975;BME280;74127;54.228;37.632;2023-11-21T00:16:46;985.856;;;-9.28;79.51953
72975;BME280;74127;54.228;37.632;2023-11-21T00:20:46;985.7474;;;-9.26;79.27344
72975;BME280;74127;54.228;37.632;2023-11-21T00:24:46;985.7477;;;-9.32;79.24219
72975;BME280;74127;54.228;37.632;2023-11-21T00:28:46;985.7477;;;-9.32;79.24219
72975;BME280;74127;54.228;37.632;2023-11-21T00:32:46;985.8297;;;-9.41;79.18359
72975;BME280;74127;54.228;37.632;2023-11-21T00:36:46;985.9285;;;-9.43;79.77734
72975;BME280;74127;54.228;37.632;2023-11-21T00:40:46;985.9534;;;-9.45;79.64844
72975;BME280;74127;54.228;37.632;2023-11-21T00:44:46;986.0627;;;-9.48;79.68652
72975;BME280;74127;54.228;37.632;2023-11-21T00:48:46;986.0627;;;-9.48;79.68652
72975;BME280;74127;54.228;37.632;2023-11-21T00:52:46;986.1379;;;-9.41;79.53418
72975;BME280;74127;54.228;37.632;2023-11-21T00:56:46;986.1422;;;-9.2;79.30469
72975;BME280;74127;54.228;37.632;2023-11-21T01:00:46;986.1002;;;-9.03;78.4082
72975;BME280;74127;54.228;37.632;2023-11-21T01:04:46;986.0538;;;-9.04;78.50098
72975;BME280;74127;54.228;37.632;2023-11-21T01:08:46;986.0538;;;-9.04;78.50098
72975;BME280;74127;54.228;37.632;2023-11-21T01:12:46;986.06;;;-9.01;78.47559
72975;BME280;74127;54.228;37.632;2023-11-21T01:16:46;986.0895;;;-9.02;78.38086
72975;BME280;74127;54.228;37.632;2023-11-21T01:20:46;986.0776;;;-9.05;78.66309
72975;BME280;74127;54.228;37.632;2023-11-21T01:24:46;986.1707;;;-9.03;78.53223
72975;BME280;74127;54.228;37.632;2023-11-21T01:28:46;986.1707;;;-9.03;78.53223
72975;BME280;74127;54.228;37.632;2023-11-21T01:32:46;986.2847;;;-9.04;78.57324
72975;BME280;74127;54.228;37.632;2023-11-21T01:36:46;986.2371;;;-9.02;78.47363
72975;BME280;74127;54.228;37.632;2023-11-21T01:40:46;986.1902;;;-8.97;78.3584
72975;BME280;74127;54.228;37.632;2023-11-21T01:44:46;986.1436;;;-8.91;77.8877
72975;BME280;74127;54.228;37.632;2023-11-21T01:48:47;986.1436;;;-8.91;77.8877
72975;BME280;74127;54.228;37.632;2023-11-21T01:52:46;986.1869;;;-8.8;77.98926
72975;BME280;74127;54.228;37.632;2023-11-21T01:56:47;986.3162;;;-8.56;77.77637
72975;BME280;74127;54.228;37.632;2023-11-21T02:00:47;986.405;;;-8.29;77.28906
72975;BME280;74127;54.228;37.632;2023-11-21T02:04:46;986.3549;;;-8.06;76.6377
72975;BME280;74127;54.228;37.632;2023-11-21T02:08:46;986.3549;;;-8.06;76.6377
72975;BME280;74127;54.228;37.632;2023-11-21T02:12:46;986.3513;;;-8;76.20313
72975;BME280;74127;54.228;37.632;2023-11-21T02:16:46;986.4242;;;-7.88;75.62598
72975;BME280;74127;54.228;37.632;2023-11-21T02:20:46;986.5199;;;-7.85;75.23633
72975;BME280;74127;54.228;37.632;2023-11-21T02:24:46;986.4114;;;-7.8;75.3916
72975;BME280;74127;54.228;37.632;2023-11-21T02:28:46;986.4114;;;-7.8;75.3916
72975;BME280;74127;54.228;37.632;2023-11-21T02:32:47;986.4338;;;-7.76;75.38965
72975;BME280;74127;54.228;37.632;2023-11-21T02:36:47;986.4919;;;-7.69;75.47363
72975;BME280;74127;54.228;37.632;2023-11-21T02:40:47;986.4713;;;-7.58;75.34863
72975;BME280;74127;54.228;37.632;2023-11-21T02:44:47;986.4919;;;-7.57;74.86328
72975;BME280;74127;54.228;37.632;2023-11-21T02:48:47;986.4919;;;-7.57;74.86328
72975;BME280;74127;54.228;37.632;2023-11-21T02:52:47;986.5184;;;-7.55;75.14648
72975;BME280;74127;54.228;37.632;2023-11-21T02:56:47;986.5722;;;-7.51;74.68652
72975;BME280;74127;54.228;37.632;2023-11-21T03:00:47;986.7294;;;-7.57;74.70801
72975;BME280;74127;54.228;37.632;2023-11-21T03:04:47;986.8817;;;-7.52;75.08887
72975;BME280;74127;54.228;37.632;2023-11-21T03:08:47;986.8817;;;-7.52;75.08887
72975;BME280;74127;54.228;37.632;2023-11-21T03:12:47;986.8887;;;-7.44;75.20605
72975;BME280;74127;54.228;37.632;2023-11-21T03:16:47;986.8918;;;-7.43;74.93848
72975;BME280;74127;54.228;37.632;2023-11-21T03:20:47;986.8667;;;-7.49;74.45215
72975;BME280;74127;54.228;37.632;2023-11-21T03:24:47;986.8836;;;-7.51;74.80078
72975;BME280;74127;54.228;37.632;2023-11-21T03:28:47;986.8836;;;-7.51;74.80078
72975;BME280;74127;54.228;37.632;2023-11-21T03:32:47;986.9828;;;-7.49;74.76074
72975;BME280;74127;54.228;37.632;2023-11-21T03:36:47;987.0831;;;-7.49;74.89746
72975;BME280;74127;54.228;37.632;2023-11-21T03:40:47;987.0689;;;-7.53;74.33301
72975;BME280;74127;54.228;37.632;2023-11-21T03:44:47;986.9953;;;-7.52;74.34277
72975;BME280;74127;54.228;37.632;2023-11-21T03:48:47;986.9953;;;-7.52;74.34277
72975;BME280;74127;54.228;37.632;2023-11-21T03:52:47;986.9644;;;-7.52;74.62305
72975;BME280;74127;54.228;37.632;2023-11-21T03:56:47;987.08;;;-7.5;74.62598
72975;BME280;74127;54.228;37.632;2023-11-21T04:00:47;987.0183;;;-7.47;74.38281
72975;BME280;74127;54.228;37.632;2023-11-21T04:04:47;987.0114;;;-7.51;74.0752
72975;BME280;74127;54.228;37.632;2023-11-21T04:08:47;987.0114;;;-7.51;74.0752
72975;BME280;74127;54.228;37.632;2023-11-21T04:12:47;986.9653;;;-7.51;73.88867
72975;BME280;74127;54.228;37.632;2023-11-21T04:16:47;986.899;;;-7.51;74.23047
72975;BME280;74127;54.228;37.632;2023-11-21T04:20:48;986.8611;;;-7.45;74.39648
72975;BME280;74127;54.228;37.632;2023-11-21T04:24:47;986.847;;;-7.44;73.97266
72975;BME280;74127;54.228;37.632;2023-11-21T04:28:47;986.847;;;-7.44;73.97266
72975;BME280;74127;54.228;37.632;2023-11-21T04:32:47;986.8148;;;-7.4;74.4248
72975;BME280;74127;54.228;37.632;2023-11-21T04:36:47;986.9953;;;-7.37;74.28516
72975;BME280;74127;54.228;37.632;2023-11-21T04:40:47;987.1602;;;-7.35;73.99121
72975;BME280;74127;54.228;37.632;2023-11-21T04:44:47;987.2006;;;-7.34;74.10449
72975;BME280;74127;54.228;37.632;2023-11-21T04:48:47;987.2006;;;-7.34;74.10449
72975;BME280;74127;54.228;37.632;2023-11-21T04:52:47;987.1775;;;-7.28;74.42578
72975;BME280;74127;54.228;37.632;2023-11-21T04:56:47;987.1938;;;-7.26;73.70508
72975;BME280;74127;54.228;37.632;2023-11-21T05:00:47;987.1955;;;-7.33;74.02344
72975;BME280;74127;54.228;37.632;2023-11-21T05:04:47;987.199;;;-7.32;74.03516
72975;BME280;74127;54.228;37.632;2023-11-21T05:08:47;987.199;;;-7.32;74.03516
72975;BME280;74127;54.228;37.632;2023-11-21T05:12:47;987.3323;;;-7.34;73.86816
72975;BME280;74127;54.228;37.632;2023-11-21T05:16:47;987.3986;;;-7.34;73.49316
72975;BME280;74127;54.228;37.632;2023-11-21T05:20:47;987.4682;;;-7.38;73.81836
72975;BME280;74127;54.228;37.632;2023-11-21T05:24:47;987.3892;;;-7.33;73.95215
72975;BME280;74127;54.228;37.632;2023-11-21T05:28:47;987.3892;;;-7.33;73.95215
72975;BME280;74127;54.228;37.632;2023-11-21T05:32:47;987.394;;;-7.25;74.15234
72975;BME280;74127;54.228;37.632;2023-11-21T05:36:47;987.4111;;;-7.15;74.1709
72975;BME280;74127;54.228;37.632;2023-11-21T05:40:47;987.5159;;;-7.08;73.94336
72975;BME280;74127;54.228;37.632;2023-11-21T05:44:47;987.551;;;-7.08;73.39355
72975;BME280;74127;54.228;37.632;2023-11-21T05:48:47;987.551;;;-7.08;73.39355
72975;BME280;74127;54.228;37.632;2023-11-21T05:52:47;987.5507;;;-7.1;73.28613
72975;BME280;74127;54.228;37.632;2023-11-21T05:56:47;987.6489;;;-7.03;73.2666
72975;BME280;74127;54.228;37.632;2023-11-21T06:00:47;987.7233;;;-6.92;72.95508
72975;BME280;74127;54.228;37.632;2023-11-21T06:04:47;987.6788;;;-6.8;72.9541
72975;BME280;74127;54.228;37.632;2023-11-21T06:08:47;987.6788;;;-6.8;72.9541
72975;BME280;74127;54.228;37.632;2023-11-21T06:12:47;987.6934;;;-6.71;72.54395
72975;BME280;74127;54.228;37.632;2023-11-21T06:16:47;987.6558;;;-6.56;71.62402
72975;BME280;74127;54.228;37.632;2023-11-21T06:20:47;987.5747;;;-6.43;70.92871
72975;BME280;74127;54.228;37.632;2023-11-21T06:24:47;987.5477;;;-6.31;71.15723
72975;BME280;74127;54.228;37.632;2023-11-21T06:28:47;987.5477;;;-6.31;71.15723
72975;BME280;74127;54.228;37.632;2023-11-21T06:32:47;987.5334;;;-6.27;70.65332
72975;BME280;74127;54.228;37.632;2023-11-21T06:40:47;987.661;;;-6.27;71.65234
72975;BME280;74127;54.228;37.632;2023-11-21T06:44:47;987.7128;;;-6.14;71.38379
72975;BME280;74127;54.228;37.632;2023-11-21T06:48:47;987.7128;;;-6.14;71.38379
72975;BME280;74127;54.228;37.632;2023-11-21T06:52:47;987.7892;;;-6.14;71.16504
72975;BME280;74127;54.228;37.632;2023-11-21T06:56:47;987.8512;;;-6.26;69.97852
72975;BME280;74127;54.228;37.632;2023-11-21T07:00:47;987.8886;;;-6.22;70.49512
72975;BME280;74127;54.228;37.632;2023-11-21T07:04:47;987.868;;;-6.19;69.71973
72975;BME280;74127;54.228;37.632;2023-11-21T07:08:47;987.868;;;-6.19;69.71973
72975;BME280;74127;54.228;37.632;2023-11-21T07:12:47;987.8481;;;-6.21;69.57129
72975;BME280;74127;54.228;37.632;2023-11-21T07:16:47;987.962;;;-6.25;69.31543
72975;BME280;74127;54.228;37.632;2023-11-21T07:20:47;987.9691;;;-6.28;68.66309
72975;BME280;74127;54.228;37.632;2023-11-21T07:24:50;988.0451;;;-6.36;69.36816
72975;BME280;74127;54.228;37.632;2023-11-21T07:32:47;988.1007;;;-6.27;69.47754
72975;BME280;74127;54.228;37.632;2023-11-21T07:36:47;988.1479;;;-6.28;68.91309
72975;BME280;74127;54.228;37.632;2023-11-21T07:40:47;988.2042;;;-6.25;68.77246
72975;BME280;74127;54.228;37.632;2023-11-21T07:44:47;988.3026;;;-6.33;68.16602
72975;BME280;74127;54.228;37.632;2023-11-21T07:48:47;988.3026;;;-6.33;68.16602
72975;BME280;74127;54.228;37.632;2023-11-21T07:52:47;988.1863;;;-6.24;68.81641
72975;BME280;74127;54.228;37.632;2023-11-21T07:56:47;988.3123;;;-5.96;68.9043
72975;BME280;74127;54.228;37.632;2023-11-21T08:00:47;988.2628;;;-5.9;68.51758
72975;BME280;74127;54.228;37.632;2023-11-21T08:04:47;988.3231;;;-5.78;68.47266
72975;BME280;74127;54.228;37.632;2023-11-21T08:08:47;988.3231;;;-5.78;68.47266
72975;BME280;74127;54.228;37.632;2023-11-21T08:12:47;988.2142;;;-5.54;68.45117
72975;BME280;74127;54.228;37.632;2023-11-21T08:16:47;988.2506;;;-5.45;68.55762
72975;BME280;74127;54.228;37.632;2023-11-21T08:20:47;988.2839;;;-5.45;68.25684
72975;BME280;74127;54.228;37.632;2023-11-21T08:24:47;988.3011;;;-5.44;68.32031
72975;BME280;74127;54.228;37.632;2023-11-21T08:28:47;988.3011;;;-5.44;68.32031
72975;BME280;74127;54.228;37.632;2023-11-21T08:32:47;988.16;;;-5.44;67.40234
72975;BME280;74127;54.228;37.632;2023-11-21T08:36:47;988.215;;;-5.62;67.55078
72975;BME280;74127;54.228;37.632;2023-11-21T08:40:47;988.2106;;;-5.61;66.65527
72975;BME280;74127;54.228;37.632;2023-11-21T08:44:47;988.0806;;;-5.37;67.22559
72975;BME280;74127;54.228;37.632;2023-11-21T08:48:47;988.0806;;;-5.37;67.22559
72975;BME280;74127;54.228;37.632;2023-11-21T08:52:47;988.067;;;-5.16;65.46094
72975;BME280;74127;54.228;37.632;2023-11-21T08:56:47;988.0023;;;-5.02;65.05469
72975;BME280;74127;54.228;37.632;2023-11-21T09:00:47;988.1021;;;-4.94;64.70117
72975;BME280;74127;54.228;37.632;2023-11-21T09:04:47;988.1239;;;-4.86;64.79688
72975;BME280;74127;54.228;37.632;2023-11-21T09:08:47;988.1239;;;-4.86;64.79688
72975;BME280;74127;54.228;37.632;2023-11-21T09:12:47;988.1244;;;-4.86;63.42578
72975;BME280;74127;54.228;37.632;2023-11-21T09:16:47;988.1278;;;-4.89;63.21387
72975;BME280;74127;54.228;37.632;2023-11-21T09:20:47;988.1617;;;-4.94;63.42383
72975;BME280;74127;54.228;37.632;2023-11-21T09:24:47;988.2644;;;-4.95;62.43848
72975;BME280;74127;54.228;37.632;2023-11-21T09:28:47;988.2644;;;-4.95;62.43848
72975;BME280;74127;54.228;37.632;2023-11-21T09:32:47;988.343;;;-5.16;61.39258
72975;BME280;74127;54.228;37.632;2023-11-21T09:36:47;988.3596;;;-5.22;62.67188
72975;BME280;74127;54.228;37.632;2023-11-21T09:40:47;988.3664;;;-5.12;62.41309
72975;BME280;74127;54.228;37.632;2023-11-21T09:48:48;988.3585;;;-5.15;62.0957
72975;BME280;74127;54.228;37.632;2023-11-21T09:56:48;988.4717;;;-5.29;62.59766
72975;BME280;74127;54.228;37.632;2023-11-21T10:00:48;988.436;;;-5.11;62.91699
72975;BME280;74127;54.228;37.632;2023-11-21T10:04:47;988.452;;;-4.9;63.05273
72975;BME280;74127;54.228;37.632;2023-11-21T10:08:47;988.452;;;-4.9;63.05273
72975;BME280;74127;54.228;37.632;2023-11-21T10:12:49;988.4453;;;-4.89;62.70996
72975;BME280;74127;54.228;37.632;2023-11-21T10:16:47;988.4447;;;-4.9;62.95801
72975;BME280;74127;54.228;37.632;2023-11-21T10:20:47;988.492;;;-4.98;62.70605
72975;BME280;74127;54.228;37.632;2023-11-21T10:24:47;988.452;;;-5.02;62.45996
72975;BME280;74127;54.228;37.632;2023-11-21T10:32:47;988.5217;;;-4.99;62.20215
72975;BME280;74127;54.228;37.632;2023-11-21T10:36:47;988.603;;;-4.96;62.30176
72975;BME280;74127;54.228;37.632;2023-11-21T10:40:47;988.5549;;;-5.02;61.03613
72975;BME280;74127;54.228;37.632;2023-11-21T10:44:47;988.5008;;;-5.13;61.74414
72975;BME280;74127;54.228;37.632;2023-11-21T10:48:51;988.5008;;;-5.13;61.74414
72975;BME280;74127;54.228;37.632;2023-11-21T10:56:50;988.5345;;;-5.41;62.17188
72975;BME280;74127;54.228;37.632;2023-11-21T11:04:48;988.649;;;-5.23;62.88867
72975;BME280;74127;54.228;37.632;2023-11-21T11:08:47;988.649;;;-5.23;62.88867
72975;BME280;74127;54.228;37.632;2023-11-21T11:12:48;988.7107;;;-5.26;63.19824
72975;BME280;74127;54.228;37.632;2023-11-21T11:16:47;988.7153;;;-5.46;63.40723
72975;BME280;74127;54.228;37.632;2023-11-21T11:20:47;988.7547;;;-5.52;63.53613
72975;BME280;74127;54.228;37.632;2023-11-21T11:28:51;988.7408;;;-5.53;63.5332
72975;BME280;74127;54.228;37.632;2023-11-21T11:33:06;988.7567;;;-5.54;63.76367
72975;BME280;74127;54.228;37.632;2023-11-21T11:36:48;988.7983;;;-5.57;63.85352
72975;BME280;74127;54.228;37.632;2023-11-21T11:40:47;988.8419;;;-5.63;63.57031
72975;BME280;74127;54.228;37.632;2023-11-21T11:52:48;988.8141;;;-5.72;64.06934
72975;BME280;74127;54.228;37.632;2023-11-21T11:56:47;988.8745;;;-5.85;64.38379
72975;BME280;74127;54.228;37.632;2023-11-21T12:00:47;988.8572;;;-6;64.13086
72975;BME280;74127;54.228;37.632;2023-11-21T12:04:47;988.8184;;;-6.13;63.97559
72975;BME280;74127;54.228;37.632;2023-11-21T12:08:47;988.8184;;;-6.13;63.97559
72975;BME280;74127;54.228;37.632;2023-11-21T12:12:48;988.8845;;;-6.21;64.21387
72975;BME280;74127;54.228;37.632;2023-11-21T12:16:47;988.9528;;;-6.23;64.27246
72975;BME280;74127;54.228;37.632;2023-11-21T12:20:47;989.0737;;;-6.3;64.6377
72975;BME280;74127;54.228;37.632;2023-11-21T12:24:47;989.1644;;;-6.43;64.64941
72975;BME280;74127;54.228;37.632;2023-11-21T12:28:51;989.1644;;;-6.43;64.64941
72975;BME280;74127;54.228;37.632;2023-11-21T12:32:48;989.3306;;;-6.48;64.75684
72975;BME280;74127;54.228;37.632;2023-11-21T12:36:48;989.3675;;;-6.5;65.19043
72975;BME280;74127;54.228;37.632;2023-11-21T12:40:48;989.4968;;;-6.56;64.91895
72975;BME280;74127;54.228;37.632;2023-11-21T12:44:48;989.5173;;;-6.68;65.4541
72975;BME280;74127;54.228;37.632;2023-11-21T12:48:48;989.5173;;;-6.68;65.4541
72975;BME280;74127;54.228;37.632;2023-11-21T12:52:48;989.6031;;;-6.71;65.44922
72975;BME280;74127;54.228;37.632;2023-11-21T12:56:48;989.6394;;;-6.73;65.34082
72975;BME280;74127;54.228;37.632;2023-11-21T13:00:49;989.764;;;-6.75;65.60938
72975;BME280;74127;54.228;37.632;2023-11-21T13:04:51;989.7988;;;-6.74;65.50781
72975;BME280;74127;54.228;37.632;2023-11-21T13:08:48;989.7988;;;-6.74;65.50781
72975;BME280;74127;54.228;37.632;2023-11-21T13:12:48;989.8517;;;-6.76;65.82617
72975;BME280;74127;54.228;37.632;2023-11-21T13:16:48;989.8624;;;-6.78;65.86621
72975;BME280;74127;54.228;37.632;2023-11-21T13:20:48;989.9183;;;-6.87;65.2373
72975;BME280;74127;54.228;37.632;2023-11-21T13:24:48;989.9818;;;-6.98;64.71875
72975;BME280;74127;54.228;37.632;2023-11-21T13:28:48;989.9818;;;-6.98;64.71875
72975;BME280;74127;54.228;37.632;2023-11-21T13:32:48;990.0336;;;-7.03;65.42969
72975;BME280;74127;54.228;37.632;2023-11-21T13:36:48;990.0675;;;-6.95;65.78809
72975;BME280;74127;54.228;37.632;2023-11-21T13:40:57;990.0834;;;-6.98;65.47852
72975;BME280;74127;54.228;37.632;2023-11-21T13:44:48;990.0647;;;-6.96;65.91016
72975;BME280;74127;54.228;37.632;2023-11-21T13:48:48;990.0647;;;-6.96;65.91016
72975;BME280;74127;54.228;37.632;2023-11-21T13:56:48;990.1998;;;-6.88;65.74609
72975;BME280;74127;54.228;37.632;2023-11-21T14:00:48;990.2594;;;-6.87;65.80957
72975;BME280;74127;54.228;37.632;2023-11-21T14:04:48;990.2433;;;-6.83;65.62891
72975;BME280;74127;54.228;37.632;2023-11-21T14:08:48;990.2433;;;-6.83;65.62891
72975;BME280;74127;54.228;37.632;2023-11-21T14:12:48;990.3069;;;-6.86;65.92578
72975;BME280;74127;54.228;37.632;2023-11-21T14:16:48;990.2088;;;-6.83;65.91992
72975;BME280;74127;54.228;37.632;2023-11-21T14:20:48;990.235;;;-6.86;65.81152
72975;BME280;74127;54.228;37.632;2023-11-21T14:24:48;990.2961;;;-6.89;65.24316
72975;BME280;74127;54.228;37.632;2023-11-21T14:28:48;990.2961;;;-6.89;65.24316
72975;BME280;74127;54.228;37.632;2023-11-21T14:32:48;990.3401;;;-6.94;65.18457
72975;BME280;74127;54.228;37.632;2023-11-21T14:36:48;990.2868;;;-6.99;64.72949
72975;BME280;74127;54.228;37.632;2023-11-21T14:40:48;990.282;;;-6.94;65.41309
72975;BME280;74127;54.228;37.632;2023-11-21T14:44:48;990.3628;;;-6.87;65.2373
72975;BME280;74127;54.228;37.632;2023-11-21T14:48:48;990.3628;;;-6.87;65.2373
72975;BME280;74127;54.228;37.632;2023-11-21T14:52:48;990.3356;;;-6.84;65.57324
72975;BME280;74127;54.228;37.632;2023-11-21T14:56:48;990.3759;;;-6.83;65.28516
72975;BME280;74127;54.228;37.632;2023-11-21T15:00:48;990.4108;;;-6.83;65.0957
72975;BME280;74127;54.228;37.632;2023-11-21T15:04:48;990.3502;;;-6.82;65.12012
72975;BME280;74127;54.228;37.632;2023-11-21T15:08:49;990.3502;;;-6.82;65.12012
72975;BME280;74127;54.228;37.632;2023-11-21T15:12:48;990.438;;;-6.83;65.0459
72975;BME280;74127;54.228;37.632;2023-11-21T15:16:48;990.4185;;;-6.89;64.84766
72975;BME280;74127;54.228;37.632;2023-11-21T15:20:48;990.4283;;;-6.89;64.86914
72975;BME280;74127;54.228;37.632;2023-11-21T15:24:48;990.4506;;;-6.96;65.08789
72975;BME280;74127;54.228;37.632;2023-11-21T15:32:48;990.5144;;;-6.93;65.35254
72975;BME280;74127;54.228;37.632;2023-11-21T15:36:48;990.6024;;;-6.83;65.51367
72975;BME280;74127;54.228;37.632;2023-11-21T15:40:48;990.5511;;;-6.78;65.65625
72975;BME280;74127;54.228;37.632;2023-11-21T15:44:48;990.577;;;-6.77;65.24121
72975;BME280;74127;54.228;37.632;2023-11-21T15:48:48;990.577;;;-6.77;65.24121
72975;BME280;74127;54.228;37.632;2023-11-21T15:52:48;990.5521;;;-6.77;65.29492
72975;BME280;74127;54.228;37.632;2023-11-21T15:56:48;990.6439;;;-6.76;65.30566
72975;BME280;74127;54.228;37.632;2023-11-21T16:00:48;990.6;;;-6.74;65.16406
72975;BME280;74127;54.228;37.632;2023-11-21T16:04:48;990.7078;;;-6.72;65.24902
72975;BME280;74127;54.228;37.632;2023-11-21T16:08:48;990.7078;;;-6.72;65.24902
72975;BME280;74127;54.228;37.632;2023-11-21T16:12:48;990.723;;;-6.72;65.24023
72975;BME280;74127;54.228;37.632;2023-11-21T16:16:48;990.7933;;;-6.69;65.45215
72975;BME280;74127;54.228;37.632;2023-11-21T16:20:48;990.8882;;;-6.76;65.24414
72975;BME280;74127;54.228;37.632;2023-11-21T16:24:48;990.845;;;-6.77;64.81641
72975;BME280;74127;54.228;37.632;2023-11-21T16:28:48;990.845;;;-6.77;64.81641
72975;BME280;74127;54.228;37.632;2023-11-21T16:32:48;990.8764;;;-6.83;65.20117
72975;BME280;74127;54.228;37.632;2023-11-21T16:36:48;990.8539;;;-6.83;65.12891
72975;BME280;74127;54.228;37.632;2023-11-21T16:40:48;990.8547;;;-6.86;65.70703
72975;BME280;74127;54.228;37.632;2023-11-21T16:44:48;990.7844;;;-6.88;65.75684
72975;BME280;74127;54.228;37.632;2023-11-21T16:48:48;990.7844;;;-6.88;65.75684
72975;BME280;74127;54.228;37.632;2023-11-21T16:52:48;990.8697;;;-6.89;66.04492
72975;BME280;74127;54.228;37.632;2023-11-21T16:56:48;990.865;;;-6.87;66.18457
72975;BME280;74127;54.228;37.632;2023-11-21T17:00:48;990.9272;;;-6.89;66.22363
72975;BME280;74127;54.228;37.632;2023-11-21T17:04:48;990.9029;;;-6.95;65.93359
72975;BME280;74127;54.228;37.632;2023-11-21T17:08:48;990.9029;;;-6.95;65.93359
72975;BME280;74127;54.228;37.632;2023-11-21T17:12:48;990.8442;;;-7;65.17383
72975;BME280;74127;54.228;37.632;2023-11-21T17:16:48;990.9225;;;-7.14;64.5918
72975;BME280;74127;54.228;37.632;2023-11-21T17:20:48;990.9794;;;-7.18;64.98047
72975;BME280;74127;54.228;37.632;2023-11-21T17:24:48;990.9595;;;-7.19;64.88477
72975;BME280;74127;54.228;37.632;2023-11-21T17:28:48;990.9595;;;-7.19;64.88477
72975;BME280;74127;54.228;37.632;2023-11-21T17:32:48;990.9614;;;-7.23;63.70313
72975;BME280;74127;54.228;37.632;2023-11-21T17:36:48;991.0598;;;-7.29;63.82031
72975;BME280;74127;54.228;37.632;2023-11-21T17:40:48;991.0559;;;-7.28;64.17383
72975;BME280;74127;54.228;37.632;2023-11-21T17:44:48;991.0416;;;-7.22;64.55859
72975;BME280;74127;54.228;37.632;2023-11-21T17:48:48;991.0416;;;-7.22;64.55859
72975;BME280;74127;54.228;37.632;2023-11-21T17:56:48;991.0793;;;-7.06;65.17676
72975;BME280;74127;54.228;37.632;2023-11-21T18:00:48;991.1669;;;-7.05;65.09375
72975;BME280;74127;54.228;37.632;2023-11-21T18:04:48;991.0675;;;-7.02;64.61035
72975;BME280;74127;54.228;37.632;2023-11-21T18:08:48;991.0675;;;-7.02;64.61035
72975;BME280;74127;54.228;37.632;2023-11-21T18:12:48;991.1382;;;-7.07;64.50977
72975;BME280;74127;54.228;37.632;2023-11-21T18:16:49;991.2381;;;-7.13;64.03125
72975;BME280;74127;54.228;37.632;2023-11-21T18:24:48;991.084;;;-7.33;63.63574
72975;BME280;74127;54.228;37.632;2023-11-21T18:28:48;991.084;;;-7.33;63.63574
72975;BME280;74127;54.228;37.632;2023-11-21T18:32:48;991.0943;;;-7.38;63.78516
72975;BME280;74127;54.228;37.632;2023-11-21T18:36:48;991.1465;;;-7.35;63.79004
72975;BME280;74127;54.228;37.632;2023-11-21T18:40:48;991.2686;;;-7.42;63.48633
72975;BME280;74127;54.228;37.632;2023-11-21T18:44:48;991.22;;;-7.41;63.90527
72975;BME280;74127;54.228;37.632;2023-11-21T18:48:48;991.22;;;-7.41;63.90527
72975;BME280;74127;54.228;37.632;2023-11-21T18:52:48;991.2522;;;-7.33;64.1875
72975;BME280;74127;54.228;37.632;2023-11-21T18:56:48;991.3303;;;-7.27;64.09375
72975;BME280;74127;54.228;37.632;2023-11-21T19:00:48;991.3033;;;-7.25;64.68945
72975;BME280;74127;54.228;37.632;2023-11-21T19:08:48;991.2988;;;-7.01;65.75586
72975;BME280;74127;54.228;37.632;2023-11-21T19:12:48;991.2383;;;-6.84;65.94824
72975;BME280;74127;54.228;37.632;2023-11-21T19:16:48;991.1914;;;-6.92;64.95801
72975;BME280;74127;54.228;37.632;2023-11-21T19:20:48;991.2838;;;-7.11;64.4502
72975;BME280;74127;54.228;37.632;2023-11-21T19:24:48;991.2564;;;-7.13;65.16602
72975;BME280;74127;54.228;37.632;2023-11-21T19:28:48;991.2564;;;-7.13;65.16602
72975;BME280;74127;54.228;37.632;2023-11-21T19:32:48;991.3016;;;-7.05;65.5625
72975;BME280;74127;54.228;37.632;2023-11-21T19:36:48;991.3256;;;-7.2;64.33203
72975;BME280;74127;54.228;37.632;2023-11-21T19:40:48;991.3615;;;-7.29;64.61035
72975;BME280;74127;54.228;37.632;2023-11-21T19:44:48;991.3917;;;-7.26;64.86328
72975;BME280;74127;54.228;37.632;2023-11-21T19:48:48;991.3917;;;-7.26;64.86328
72975;BME280;74127;54.228;37.632;2023-11-21T19:52:48;991.3922;;;-7.23;64.94043
72975;BME280;74127;54.228;37.632;2023-11-21T19:56:48;991.4119;;;-7.24;64.78418
72975;BME280;74127;54.228;37.632;2023-11-21T20:00:48;991.3322;;;-7.19;64.79102
72975;BME280;74127;54.228;37.632;2023-11-21T20:04:48;991.4034;;;-7.23;64.63965
72975;BME280;74127;54.228;37.632;2023-11-21T20:08:48;991.4034;;;-7.23;64.63965
72975;BME280;74127;54.228;37.632;2023-11-21T20:12:48;991.5183;;;-7.31;64.52344
72975;BME280;74127;54.228;37.632;2023-11-21T20:16:49;991.5352;;;-7.3;64.75293
72975;BME280;74127;54.228;37.632;2023-11-21T20:20:49;991.6198;;;-7.4;63.75977
72975;BME280;74127;54.228;37.632;2023-11-21T20:24:48;991.6404;;;-7.44;64.41992
72975;BME280;74127;54.228;37.632;2023-11-21T20:28:48;991.6404;;;-7.44;64.41992
72975;BME280;74127;54.228;37.632;2023-11-21T20:32:49;991.6194;;;-7.53;63.94922
72975;BME280;74127;54.228;37.632;2023-11-21T20:36:48;991.6879;;;-7.55;63.9043
72975;BME280;74127;54.228;37.632;2023-11-21T20:40:48;991.7047;;;-7.59;64.20996
72975;BME280;74127;54.228;37.632;2023-11-21T20:44:48;991.7876;;;-7.53;64.24023
72975;BME280;74127;54.228;37.632;2023-11-21T20:48:48;991.7876;;;-7.53;64.24023
72975;BME280;74127;54.228;37.632;2023-11-21T20:52:49;991.7722;;;-7.55;63.99805
72975;BME280;74127;54.228;37.632;2023-11-21T20:56:48;991.8578;;;-7.68;63.77051
72975;BME280;74127;54.228;37.632;2023-11-21T21:00:48;991.8414;;;-7.62;64.83008
72975;BME280;74127;54.228;37.632;2023-11-21T21:04:48;991.8337;;;-7.46;65.62402
72975;BME280;74127;54.228;37.632;2023-11-21T21:08:48;991.8337;;;-7.46;65.62402